createdAt,value
2022-10-29T00:00:39.665Z,100173.50
2022-10-29T00:03:41.503Z,100174.19
2022-10-29T00:06:43.536Z,100167.28
2022-10-29T00:09:45.466Z,100166.28
2022-10-29T00:12:47.384Z,100158.94
2022-10-29T00:15:49.272Z,100158.94
2022-10-29T00:18:51.062Z,100157.25
2022-10-29T00:21:52.886Z,100158.94
2022-10-29T00:24:54.779Z,100160.94
2022-10-29T00:27:57.073Z,100154.72
2022-10-29T00:31:12.108Z,100146.53
2022-10-29T00:34:13.963Z,100146.81
2022-10-29T00:37:15.881Z,100152.19
2022-10-29T00:40:17.867Z,100139.78
2022-10-29T00:43:22.345Z,100137.94
2022-10-29T00:46:33.960Z,100144.97
2022-10-29T00:49:36.742Z,100145.13
2022-10-29T00:52:43.004Z,100130.75
2022-10-29T00:55:45.381Z,100135.25
2022-10-29T00:58:47.712Z,100137.09
2022-10-29T01:01:49.946Z,100135.56
2022-10-29T01:04:53.359Z,100127.81
2022-10-29T01:07:55.245Z,100128.50
2022-10-29T01:11:03.187Z,100106.22
2022-10-29T01:14:32.682Z,100106.22
2022-10-29T01:18:06.592Z,100108.88
2022-10-29T01:21:08.419Z,100103.69
2022-10-29T01:24:13.064Z,100103.81
2022-10-29T01:27:30.114Z,100094.25
2022-10-29T01:30:50.592Z,100095.53
2022-10-29T01:34:02.828Z,100094.00
2022-10-29T01:37:32.946Z,100098.97
2022-10-29T01:40:55.450Z,100100.41
2022-10-29T01:44:19.641Z,100114.25
2022-10-29T01:47:25.066Z,100102.00
2022-10-29T01:50:27.601Z,100104.81
2022-10-29T01:53:31.512Z,100101.28
2022-10-29T01:56:33.303Z,100097.06
2022-10-29T01:59:36.381Z,100091.97
2022-10-29T02:02:54.722Z,100083.78
2022-10-29T02:06:12.636Z,100086.34
2022-10-29T02:09:26.891Z,100080.25
2022-10-29T02:12:38.945Z,100077.72
2022-10-29T02:15:51.570Z,100087.19
2022-10-29T02:18:53.446Z,100090.03
2022-10-29T02:21:55.298Z,100085.50
2022-10-29T02:24:57.141Z,100078.56
2022-10-29T02:27:59.120Z,100081.84
2022-10-29T02:31:01.067Z,100080.00
2022-10-29T02:34:02.894Z,100084.53
2022-10-29T02:37:06.035Z,100077.31
2022-10-29T02:40:08.548Z,100082.69
2022-10-29T02:43:10.526Z,100073.66
2022-10-29T02:46:13.653Z,100084.38
2022-10-29T02:49:15.537Z,100080.69
2022-10-29T02:52:17.435Z,100079.72
2022-10-29T02:55:19.226Z,100081.41
2022-10-29T03:01:24.106Z,100073.38
2022-10-29T03:04:26.072Z,100080.56
2022-10-29T03:07:28.007Z,100078.88
2022-10-29T03:10:30.044Z,100074.06
2022-10-29T03:13:31.922Z,100065.75
2022-10-29T03:16:33.882Z,100067.34
2022-10-29T03:19:35.658Z,100070.75
2022-10-29T03:22:37.880Z,100066.13
2022-10-29T03:25:39.771Z,100063.19
2022-10-29T03:28:42.068Z,100055.16
2022-10-29T03:31:44.098Z,100049.25
2022-10-29T03:34:45.952Z,100045.59
2022-10-29T03:37:51.972Z,100048.16
2022-10-29T03:40:54.085Z,100046.75
2022-10-29T03:47:02.691Z,100029.03
2022-10-29T03:50:04.898Z,100029.59
2022-10-29T03:53:06.752Z,100010.88
2022-10-29T03:56:10.085Z,100001.72
2022-10-29T03:59:12.975Z,100002.00
2022-10-29T04:02:14.764Z,99998.34
2022-10-29T04:05:16.983Z,99998.50
2022-10-29T04:08:19.067Z,99999.75
2022-10-29T04:11:20.939Z,99998.34
2022-10-29T04:14:22.807Z,99994.28
2022-10-29T04:17:24.710Z,99990.19
2022-10-29T04:20:45.349Z,99992.44
2022-10-29T04:30:33.676Z,99982.44
2022-10-29T04:33:35.543Z,99977.38
2022-10-29T04:36:37.394Z,99966.84
2022-10-29T04:39:39.229Z,99951.06
2022-10-29T04:42:41.630Z,99944.88
2022-10-29T04:48:50.798Z,99937.00
2022-10-29T04:51:52.792Z,99928.00
2022-10-29T04:54:54.630Z,99930.69
2022-10-29T04:57:57.225Z,99940.09
2022-10-29T05:01:03.051Z,99943.91
2022-10-29T05:04:05.201Z,99944.19
2022-10-29T05:07:07.107Z,99939.13
2022-10-29T05:10:09.707Z,99947.69
2022-10-29T05:13:12.741Z,99950.50
2022-10-29T05:16:14.634Z,99953.31
2022-10-29T05:19:16.393Z,99963.72
2022-10-29T05:22:18.378Z,99965.97
2022-10-29T05:25:20.190Z,99979.34
2022-10-29T05:28:23.706Z,99972.44
2022-10-29T05:31:25.643Z,99975.94
2022-10-29T05:34:27.521Z,99981.28
2022-10-29T05:37:29.342Z,99985.47
2022-10-29T05:40:31.769Z,99979.38
2022-10-29T05:43:33.776Z,99968.94
2022-10-29T05:46:35.623Z,99969.34
2022-10-29T05:49:37.508Z,99972.69
2022-10-29T05:52:39.709Z,99971.09
2022-10-29T05:55:42.316Z,99964.00
2022-10-29T05:58:44.127Z,99967.94
2022-10-29T06:01:46.095Z,99967.94
2022-10-29T06:04:48.048Z,99968.19
2022-10-29T06:07:59.993Z,99967.88
2022-10-29T06:11:03.557Z,99972.13
2022-10-29T06:14:05.429Z,99979.56
2022-10-29T06:17:07.311Z,99971.97
2022-10-29T06:20:11.000Z,99964.03
2022-10-29T06:23:12.925Z,99966.41
2022-10-29T06:26:14.864Z,99961.59
2022-10-29T06:29:16.706Z,99960.81
2022-10-29T06:32:18.650Z,99962.75
2022-10-29T06:35:20.762Z,99956.63
2022-10-29T06:38:22.716Z,99942.44
2022-10-29T06:41:27.231Z,99942.59
2022-10-29T06:44:29.163Z,99943.75
2022-10-29T06:47:31.048Z,99931.50
2022-10-29T06:50:32.889Z,99925.63
2022-10-29T06:53:34.755Z,99930.09
2022-10-29T06:56:36.578Z,99929.50
2022-10-29T06:59:38.442Z,99920.44
2022-10-29T07:02:40.283Z,99908.84
2022-10-29T07:05:42.345Z,99912.53
2022-10-29T07:08:44.245Z,99907.84
2022-10-29T07:11:46.191Z,99896.41
2022-10-29T07:14:48.067Z,99896.41
2022-10-29T07:18:06.936Z,99898.66
2022-10-29T07:21:09.815Z,99900.84
2022-10-29T07:24:11.553Z,99889.84
2022-10-29T07:27:13.622Z,99886.88
2022-10-29T07:30:15.853Z,99880.53
2022-10-29T07:33:18.124Z,99877.53
2022-10-29T07:36:19.985Z,99877.69
2022-10-29T07:39:22.890Z,99873.81
2022-10-29T07:42:24.936Z,99868.75
2022-10-29T07:45:26.917Z,99862.34
2022-10-29T07:48:28.745Z,99859.91
2022-10-29T07:51:30.704Z,99865.59
2022-10-29T07:54:32.618Z,99872.22
2022-10-29T07:57:34.509Z,99878.91
2022-10-29T08:00:39.107Z,99873.00
2022-10-29T08:03:40.944Z,99864.19
2022-10-29T08:06:42.965Z,99855.34
2022-10-29T08:09:45.283Z,99847.19
2022-10-29T08:12:50.524Z,99841.22
2022-10-29T08:15:52.429Z,99846.47
2022-10-29T08:18:54.190Z,99855.44
2022-10-29T08:21:56.738Z,99853.16
2022-10-29T08:24:58.585Z,99854.13
2022-10-29T08:28:05.180Z,99845.72
2022-10-29T08:31:07.553Z,99847.81
2022-10-29T08:34:11.291Z,99853.75
2022-10-29T08:37:13.476Z,99844.78
2022-10-29T08:40:23.674Z,99840.78
2022-10-29T08:44:06.992Z,99838.88
2022-10-29T08:47:23.506Z,99838.06
2022-10-29T08:50:29.935Z,99833.88
2022-10-29T08:54:10.466Z,99824.25
2022-10-29T08:57:16.092Z,99825.16
2022-10-29T09:00:25.468Z,99829.97
2022-10-29T09:03:33.587Z,99844.44
2022-10-29T09:06:35.527Z,99842.81
2022-10-29T09:09:46.534Z,99828.19
2022-10-29T09:12:51.332Z,99820.47
2022-10-29T09:16:15.901Z,99816.44
2022-10-29T09:19:36.462Z,99793.84
2022-10-29T09:22:51.909Z,99783.63
2022-10-29T09:25:53.702Z,99786.91
2022-10-29T09:29:14.083Z,99799.38
2022-10-29T09:32:33.218Z,99791.09
2022-10-29T09:35:38.312Z,99786.81
2022-10-29T09:39:05.809Z,99772.00
2022-10-29T09:42:38.563Z,99764.91
2022-10-29T09:46:11.543Z,99755.78
2022-10-29T09:49:42.305Z,99747.50
2022-10-29T09:52:46.651Z,99753.03
2022-10-29T09:55:53.942Z,99735.56
2022-10-29T09:59:07.768Z,99746.44
2022-10-29T10:02:25.111Z,99738.41
2022-10-29T10:05:29.879Z,99743.09
2022-10-29T10:08:33.272Z,99749.22
2022-10-29T10:11:44.179Z,99738.66
2022-10-29T10:14:48.215Z,99737.75
2022-10-29T10:18:05.557Z,99724.50
2022-10-29T10:21:09.664Z,99718.25
2022-10-29T10:24:32.162Z,99714.56
2022-10-29T10:27:34.036Z,99700.00
2022-10-29T10:30:35.919Z,99697.53
2022-10-29T10:33:53.990Z,99704.63
2022-10-29T10:37:02.647Z,99688.09
2022-10-29T10:40:07.140Z,99688.44
2022-10-29T10:43:21.534Z,99689.09
2022-10-29T10:46:26.640Z,99686.00
2022-10-29T10:49:30.731Z,99684.31
2022-10-29T10:52:32.942Z,99676.97
2022-10-29T10:55:38.773Z,99675.00
2022-10-29T10:59:03.616Z,99664.81
2022-10-29T11:02:14.237Z,99656.31
2022-10-29T11:05:21.773Z,99644.16
2022-10-29T11:08:33.026Z,99656.25
2022-10-29T11:12:04.917Z,99645.50
2022-10-29T11:15:12.782Z,99634.09
2022-10-29T11:18:30.517Z,99631.25
2022-10-29T11:21:38.244Z,99628.69
2022-10-29T11:24:55.709Z,99623.16
2022-10-29T11:28:22.698Z,99608.84
2022-10-29T11:31:41.040Z,99598.22
2022-10-29T11:35:04.143Z,99611.31
2022-10-29T11:38:08.710Z,99615.28
2022-10-29T11:41:19.506Z,99603.06
2022-10-29T11:44:21.935Z,99598.09
2022-10-29T11:47:52.984Z,99591.69
2022-10-29T11:51:07.754Z,99579.19
2022-10-29T11:54:24.862Z,99584.97
2022-10-29T11:57:32.217Z,99581.28
2022-10-29T12:01:07.996Z,99566.94
2022-10-29T12:04:31.036Z,99573.78
2022-10-29T12:07:53.139Z,99566.47
2022-10-29T12:11:30.380Z,99571.28
2022-10-29T12:14:44.424Z,99563.81
2022-10-29T12:17:57.141Z,99563.63
2022-10-29T12:21:19.946Z,99555.91
2022-10-29T12:24:33.709Z,99559.00
2022-10-29T12:27:50.030Z,99551.28
2022-10-29T12:30:57.719Z,99544.19
2022-10-29T12:34:08.724Z,99547.09
2022-10-29T12:37:16.867Z,99548.56
2022-10-29T12:40:24.612Z,99534.22
2022-10-29T12:43:29.500Z,99544.53
2022-10-29T12:47:00.151Z,99533.69
2022-10-29T12:50:14.084Z,99525.53
2022-10-29T12:53:19.456Z,99526.31
2022-10-29T12:56:21.648Z,99520.47
2022-10-29T12:59:23.495Z,99518.53
2022-10-29T13:02:38.962Z,99515.19
2022-10-29T13:05:43.656Z,99516.81
2022-10-29T13:08:56.713Z,99509.53
2022-10-29T13:12:02.444Z,99504.13
2022-10-29T13:15:15.556Z,99497.69
2022-10-29T13:22:06.811Z,99492.38
2022-10-29T13:25:30.191Z,99492.13
2022-10-29T13:28:37.781Z,99481.28
2022-10-29T13:31:47.949Z,99482.13
2022-10-29T13:34:54.790Z,99477.28
2022-10-29T13:38:11.736Z,99468.75
2022-10-29T13:41:16.612Z,99468.69
2022-10-29T13:44:22.836Z,99456.22
2022-10-29T13:47:25.888Z,99459.69
2022-10-29T13:50:27.887Z,99466.25
2022-10-29T13:53:39.712Z,99458.97
2022-10-29T13:56:51.491Z,99458.72
2022-10-29T14:00:20.375Z,99445.75
2022-10-29T14:04:14.784Z,99448.19
2022-10-29T14:07:25.202Z,99454.28
2022-10-29T14:10:32.937Z,99442.47
2022-10-29T14:13:43.608Z,99440.34
2022-10-29T14:16:46.504Z,99437.19
2022-10-29T14:19:50.733Z,99436.34
2022-10-29T14:22:53.019Z,99413.28
2022-10-29T14:25:57.158Z,99409.09
2022-10-29T14:29:31.475Z,99410.31
2022-10-29T14:32:39.100Z,99405.88
2022-10-29T14:35:41.194Z,99411.91
2022-10-29T14:39:23.778Z,99398.63
2022-10-29T14:42:37.561Z,99393.63
2022-10-29T14:45:39.515Z,99398.16
2022-10-29T14:48:52.402Z,99392.13
2022-10-29T14:51:57.615Z,99398.09
2022-10-29T14:55:03.669Z,99390.47
2022-10-29T14:58:20.930Z,99379.47
2022-10-29T15:01:23.129Z,99383.00
2022-10-29T15:04:27.580Z,99384.88
2022-10-29T15:07:35.454Z,99384.44
2022-10-29T15:10:49.581Z,99386.28
2022-10-29T15:13:51.477Z,99382.47
2022-10-29T15:16:53.942Z,99379.31
2022-10-29T15:20:21.234Z,99392.16
2022-10-29T15:23:45.192Z,99382.38
2022-10-29T15:27:00.357Z,99375.13
2022-10-29T15:30:04.421Z,99366.78
2022-10-29T15:33:14.705Z,99368.19
2022-10-29T15:36:16.582Z,99366.50
2022-10-29T15:39:27.050Z,99370.22
2022-10-29T15:42:36.832Z,99360.94
2022-10-29T15:45:56.824Z,99358.22
2022-10-29T15:48:58.655Z,99361.75
2022-10-29T15:52:01.321Z,99360.72
2022-10-29T15:55:27.326Z,99347.63
2022-10-29T15:58:29.859Z,99336.84
2022-10-29T16:01:31.848Z,99339.75
2022-10-29T16:04:33.742Z,99322.72
2022-10-29T16:07:35.817Z,99327.66
2022-10-29T16:10:38.641Z,99325.16
2022-10-29T16:13:40.752Z,99316.63
2022-10-29T16:16:42.590Z,99310.19
2022-10-29T16:19:44.571Z,99310.19
2022-10-29T16:22:48.258Z,99305.19
2022-10-29T16:25:50.298Z,99298.78
2022-10-29T16:28:53.404Z,99293.13
2022-10-29T16:31:55.384Z,99288.56
2022-10-29T16:34:57.304Z,99290.22
2022-10-29T16:37:59.579Z,99297.66
2022-10-29T16:41:01.532Z,99291.25
2022-10-29T16:44:03.584Z,99293.50
2022-10-29T16:47:06.070Z,99278.53
2022-10-29T16:50:08.432Z,99280.22
2022-10-29T16:53:11.225Z,99282.91
2022-10-29T16:56:13.082Z,99286.25
2022-10-29T16:59:14.922Z,99277.72
2022-10-29T17:02:16.854Z,99275.84
2022-10-29T17:05:22.441Z,99277.25
2022-10-29T17:08:24.436Z,99262.94
2022-10-29T17:11:26.296Z,99257.09
2022-10-29T17:14:28.132Z,99256.84
2022-10-29T17:17:31.047Z,99246.00
2022-10-29T17:20:33.082Z,99233.09
2022-10-29T17:23:35.191Z,99223.91
2022-10-29T17:26:37.045Z,99216.47
2022-10-29T17:29:39.581Z,99203.84
2022-10-29T17:32:41.729Z,99189.91
2022-10-29T17:35:44.719Z,99195.03
2022-10-29T17:38:46.780Z,99193.19
2022-10-29T17:41:49.395Z,99189.66
2022-10-29T17:44:51.301Z,99177.78
2022-10-29T17:47:59.727Z,99173.22
2022-10-29T17:51:03.229Z,99183.81
2022-10-29T17:54:05.228Z,99167.00
2022-10-29T17:57:07.030Z,99164.94
2022-10-29T18:00:09.641Z,99152.69
2022-10-29T18:03:12.096Z,99150.00
2022-10-29T18:06:14.871Z,99141.28
2022-10-29T18:09:20.219Z,99134.22
2022-10-29T18:12:23.151Z,99134.41
2022-10-29T18:15:26.317Z,99122.44
2022-10-29T18:18:31.990Z,99120.13
2022-10-29T18:21:40.204Z,99102.28
2022-10-29T18:24:42.185Z,99098.56
2022-10-29T18:27:44.136Z,99103.13
2022-10-29T18:30:46.033Z,99102.75
2022-10-29T18:33:48.052Z,99105.25
2022-10-29T18:36:50.044Z,99103.38
2022-10-29T18:39:53.003Z,99102.56
2022-10-29T18:42:54.947Z,99096.13
2022-10-29T18:46:02.333Z,99084.34
2022-10-29T18:49:04.162Z,99082.47
2022-10-29T18:52:06.085Z,99076.66
2022-10-29T18:55:08.430Z,99069.59
2022-10-29T18:58:10.363Z,99074.97
2022-10-29T19:01:13.596Z,99069.41
2022-10-29T19:04:16.695Z,99063.19
2022-10-29T19:07:19.045Z,99062.94
2022-10-29T19:10:20.907Z,99058.81
2022-10-29T19:13:22.855Z,99055.88
2022-10-29T19:16:25.735Z,99049.66
2022-10-29T19:19:27.564Z,99049.66
2022-10-29T19:22:31.470Z,99042.22
2022-10-29T19:25:40.998Z,99040.75
2022-10-29T19:28:43.778Z,99036.38
2022-10-29T19:31:46.419Z,99037.78
2022-10-29T19:34:48.487Z,99029.53
2022-10-29T19:37:50.315Z,99017.91
2022-10-29T19:40:52.369Z,99014.59
2022-10-29T19:43:54.298Z,99020.56
2022-10-29T19:46:56.186Z,99018.13
2022-10-29T19:49:58.039Z,99026.84
2022-10-29T19:53:00.040Z,99028.25
2022-10-29T19:56:02.288Z,99037.94
2022-10-29T19:59:05.298Z,99027.81
2022-10-29T20:02:07.258Z,99021.19
2022-10-29T20:05:09.490Z,99010.63
2022-10-29T20:08:15.673Z,99015.16
2022-10-29T20:11:21.364Z,99023.25
2022-10-29T20:14:28.753Z,99012.28
2022-10-29T20:17:31.486Z,99004.66
2022-10-29T20:20:33.271Z,98996.38
2022-10-29T20:23:35.275Z,98996.97
2022-10-29T20:26:37.154Z,98997.16
2022-10-29T20:29:39.034Z,98985.56
2022-10-29T20:32:40.945Z,98988.06
2022-10-29T20:35:42.764Z,98975.63
2022-10-29T20:38:48.448Z,98980.50
2022-10-29T20:41:50.771Z,98968.31
2022-10-29T20:44:52.615Z,98979.28
2022-10-29T20:47:54.661Z,98968.50
2022-10-29T20:50:56.884Z,98956.28
2022-10-29T20:53:59.116Z,98951.34
2022-10-29T20:57:00.893Z,98947.38
2022-10-29T21:00:02.722Z,98942.41
2022-10-29T21:03:04.620Z,98937.44
2022-10-29T21:06:12.509Z,98933.06
2022-10-29T21:09:17.748Z,98912.38
2022-10-29T21:12:19.581Z,98916.91
2022-10-29T21:15:21.451Z,98921.47
2022-10-29T21:18:23.280Z,98915.25
2022-10-29T21:21:25.841Z,98915.25
2022-10-29T21:24:27.598Z,98918.97
2022-10-29T21:27:29.511Z,98912.50
2022-10-29T21:30:32.063Z,98917.69
2022-10-29T21:33:34.248Z,98904.63
2022-10-29T21:36:36.134Z,98895.72
2022-10-29T21:39:38.018Z,98883.28
2022-10-29T21:42:40.449Z,98875.78
2022-10-29T21:45:43.190Z,98867.50
2022-10-29T21:48:44.896Z,98860.78
2022-10-29T21:51:48.337Z,98855.22
2022-10-29T21:54:50.266Z,98853.56
2022-10-29T21:57:52.161Z,98852.53
2022-10-29T22:01:07.339Z,98857.47
2022-10-29T22:04:09.222Z,98862.22
2022-10-29T22:07:11.083Z,98855.81
2022-10-29T22:10:12.978Z,98852.28
2022-10-29T22:13:14.786Z,98835.06
2022-10-29T22:16:16.687Z,98832.63
2022-10-29T22:19:18.459Z,98821.22
2022-10-29T22:22:20.424Z,98830.75
2022-10-29T22:25:22.172Z,98831.97
2022-10-29T22:28:24.081Z,98839.41
2022-10-29T22:31:26.101Z,98835.88
2022-10-29T22:34:27.908Z,98834.22
2022-10-29T22:37:29.700Z,98822.19
2022-10-29T22:40:31.719Z,98834.03
2022-10-29T22:43:33.907Z,98826.97
2022-10-29T22:46:35.849Z,98818.47
2022-10-29T22:49:37.720Z,98813.72
2022-10-29T22:55:42.215Z,98804.19
2022-10-29T22:58:44.651Z,98806.50
2022-10-29T23:01:46.557Z,98805.22
2022-10-29T23:04:48.606Z,98781.63
2022-10-29T23:07:50.413Z,98784.34
2022-10-29T23:10:52.515Z,98793.81
2022-10-29T23:14:01.822Z,98776.84
2022-10-29T23:17:03.728Z,98771.03
2022-10-29T23:20:05.949Z,98767.94
2022-10-29T23:23:07.995Z,98769.16
2022-10-29T23:26:11.524Z,98749.69
2022-10-29T23:29:13.414Z,98760.47
2022-10-29T23:32:15.257Z,98759.25
2022-10-29T23:35:17.194Z,98755.91
2022-10-29T23:38:19.061Z,98743.09
2022-10-29T23:41:20.985Z,98739.59
2022-10-29T23:44:22.828Z,98730.47
2022-10-29T23:47:24.710Z,98739.78
2022-10-29T23:50:26.625Z,98717.88
2022-10-29T23:53:28.956Z,98719.09
2022-10-29T23:56:30.851Z,98709.75
2022-10-29T23:59:32.719Z,98707.69
